Portada
METAR-TAF:

METAR-TAF

Aeroports :

Aeroport Internacional Maiquetía Simón Bolívar

Caracas, Veneçuela

latitud: 10-36N, longitud: 066-59W, altitud: 43 m

Observació

L'informe es va fer fa 11 minuts, a les 17:00 UTC
Vent 4 kt del Oest
Temperatura 32°C
Humitat 79%
Pressió 1010 hPa
Visibilitat 10 km o més
Escasses núvols a una alçada de 1600 ft

METAR: SVMI 151700Z 27004KT 9999 FEW016 32/28 Q1010

Hora: 13:11 (17:11 UTC)

Pronòstic

L'informe es va fer fa 7 hores i 11 minuts, a les 10:00 UTC
Pronòstic vàlid del 15 a les 12 UTC al 16 a les 12 UTC
Vent 5 kt del Est/Nord-Est
Visibilitat 10 km o més
Cel ennuvolat a una alçada de 1600 ft
Evolucionant progressivament
l' 15 a les 12 UTC al 15 a les 16 UTC
Vent 6 kt del Nord-Est
Visibilitat 10 km o més
Núvols disperses a una alçada de 1600 ft

TAF: SVMI 151000Z 1512/1612 06005KT 9999 BKN016 TX31/1518Z TN24/1508Z BECMG 1512/1516 04006KT 9999 SCT016

Observacions i pronòstics meteorològics de més de 4000 aeroports (METAR i TAF).

Les estacions disponibles són els punts grocs i vermells al mapa.

Posi el ratolí al punt desitjat per veure el nom de l'estació.

Feu clic per veure les observacions i els pronòstics meteorològics.

Per canviar el mapa: feu clic els botons verds amb una creu de color negre per apropar; al botó verd amb un guió per allunyar la imatge; o en les fletxes verdes per a mapes adjacents.


METAR-TAF: